Time;durP1;ratioP1;P1;durP2;ratioP2;P2;SDS_P1;SDS_P2;PMS_P1;PMS_P2;Temp;Humidity;BMP_temperature;BMP_pressure;BME280_temperature;BME280_humidity;BME280_pressure;Samples;Min_cycle;Max_cycle;Signal;HPM_P1;HPM_P2
2021/06/27 00:01:19;;;;;;;7.13;5.63;;;16.30;99.90;;;17.21;100.00;98199.31;5023832;28;20521;-82
2021/06/27 00:03:48;;;;;;;8.33;5.20;;;16.20;99.90;;;17.16;100.00;98201.81;5023678;28;20464;-82
2021/06/27 00:06:16;;;;;;;9.33;5.47;;;16.10;99.90;;;17.23;100.00;98201.72;5021619;28;20753;-82
2021/06/27 00:08:45;;;;;;;8.07;4.80;;;16.20;99.90;;;16.96;100.00;98196.81;5023820;28;20470;-82
2021/06/27 00:11:17;;;;;;;7.63;5.50;;;16.00;99.90;;;17.00;100.00;98199.81;5021931;28;20505;-82
2021/06/27 00:13:49;;;;;;;7.13;5.13;;;16.00;99.90;;;16.98;100.00;98201.84;5020969;28;20964;-82
2021/06/27 00:16:19;;;;;;;9.17;6.20;;;16.00;99.90;;;17.08;100.00;98202.94;5020997;28;20517;-82
2021/06/27 00:18:48;;;;;;;7.17;5.80;;;16.10;99.90;;;17.15;100.00;98210.00;5019006;28;20570;-82
2021/06/27 00:21:17;;;;;;;11.77;5.90;;;16.10;99.90;;;17.03;100.00;98202.81;5023671;28;20470;-82
2021/06/27 00:23:51;;;;;;;8.80;6.40;;;16.00;99.90;;;17.09;100.00;98196.63;5025739;28;20497;-82
2021/06/27 00:26:26;;;;;;;8.53;5.40;;;16.10;99.90;;;16.95;100.00;98195.19;5019778;28;20977;-82
2021/06/27 00:28:55;;;;;;;7.53;5.27;;;16.00;99.90;;;17.01;100.00;98196.13;5019370;28;21023;-82
2021/06/27 00:31:24;;;;;;;13.23;5.60;;;16.00;99.90;;;16.91;100.00;98190.56;5019659;28;20870;-82
2021/06/27 00:33:53;;;;;;;7.67;5.33;;;15.90;99.90;;;16.84;100.00;98188.03;5022358;28;20477;-82
2021/06/27 00:36:22;;;;;;;8.73;5.43;;;15.80;99.90;;;16.79;100.00;98189.72;5022459;28;20470;-83
2021/06/27 00:38:51;;;;;;;10.33;5.67;;;15.80;99.90;;;16.82;100.00;98189.28;5024401;28;20462;-82
2021/06/27 00:41:21;;;;;;;11.30;5.03;;;15.80;99.90;;;16.96;100.00;98180.97;5020472;28;20521;-82
2021/06/27 00:43:52;;;;;;;8.23;6.30;;;15.90;99.90;;;16.99;100.00;98177.06;5024467;28;20481;-82
2021/06/27 00:46:20;;;;;;;14.00;5.90;;;15.90;99.90;;;16.89;100.00;98180.25;5022157;28;20458;-82
2021/06/27 00:48:49;;;;;;;9.20;5.00;;;15.90;99.90;;;16.76;100.00;98182.25;5020518;28;20470;-81
2021/06/27 00:51:18;;;;;;;9.57;5.50;;;15.70;99.90;;;16.86;100.00;98171.97;5022522;28;20466;-82
2021/06/27 00:53:46;;;;;;;11.30;4.97;;;15.90;99.90;;;16.90;100.00;98165.22;5024763;28;20511;-82
2021/06/27 00:56:14;;;;;;;6.17;5.10;;;15.90;99.90;;;16.75;100.00;98172.72;5026391;28;20446;-82
2021/06/27 00:58:46;;;;;;;6.07;5.13;;;15.70;99.90;;;16.81;100.00;98171.81;5022438;28;20454;-82
2021/06/27 01:01:14;;;;;;;6.27;5.13;;;15.80;99.90;;;16.64;100.00;98182.19;5024434;28;20881;-82
2021/06/27 01:03:43;;;;;;;9.57;5.70;;;15.70;99.90;;;16.57;100.00;98194.66;5021663;28;20501;-82
2021/06/27 01:06:11;;;;;;;9.30;5.37;;;15.60;99.90;;;16.43;100.00;98211.66;5022705;28;20520;-82
2021/06/27 01:08:40;;;;;;;11.43;5.73;;;15.40;99.90;;;16.49;100.00;98210.75;5023571;28;20449;-82
2021/06/27 01:11:08;;;;;;;7.63;5.10;;;15.50;99.90;;;16.57;100.00;98213.16;5016868;28;20515;-81
2021/06/27 01:13:37;;;;;;;9.10;5.70;;;15.60;99.90;;;16.50;100.00;98213.19;5017317;28;20547;-82
2021/06/27 01:16:07;;;;;;;10.23;5.53;;;15.50;99.90;;;16.47;100.00;98213.63;5019439;28;20532;-82
2021/06/27 01:18:36;;;;;;;7.30;5.20;;;15.50;99.90;;;16.54;100.00;98209.09;5018385;28;20461;-82
2021/06/27 01:21:10;;;;;;;10.70;4.93;;;15.50;99.90;;;16.58;100.00;98205.03;5017048;28;20471;-82
2021/06/27 01:23:39;;;;;;;6.30;5.30;;;15.60;99.90;;;16.69;100.00;98202.66;5017316;28;21139;-82
2021/06/27 01:26:07;;;;;;;7.27;4.87;;;15.70;99.90;;;16.62;100.00;98196.66;5024581;28;20775;-81
2021/06/27 01:28:36;;;;;;;13.80;6.03;;;15.60;99.90;;;16.59;100.00;98201.31;5021119;28;20876;-82
2021/06/27 01:31:06;;;;;;;5.60;5.00;;;15.70;99.90;;;16.47;100.00;98200.44;5021807;28;20512;-82
2021/06/27 01:33:36;;;;;;;9.10;5.43;;;15.50;99.90;;;16.34;100.00;98211.16;5015515;28;20471;-82
2021/06/27 01:36:07;;;;;;;8.87;5.60;;;15.40;99.90;;;16.46;100.00;98217.28;5020436;28;20463;-82
2021/06/27 01:38:36;;;;;;;6.83;5.20;;;15.50;99.90;;;16.59;100.00;98211.88;5019913;28;20555;-82
2021/06/27 01:41:06;;;;;;;8.67;4.97;;;15.60;99.90;;;16.69;100.00;98206.09;5024363;28;20608;-82
2021/06/27 01:43:35;;;;;;;6.67;5.70;;;15.70;99.90;;;16.74;100.00;98202.78;5026448;28;20602;-82
2021/06/27 01:46:04;;;;;;;13.67;5.50;;;15.80;99.90;;;16.49;100.00;98195.72;5023391;28;20492;-82
2021/06/27 01:48:34;;;;;;;11.20;5.50;;;15.50;99.90;;;16.55;100.00;98192.25;5024023;28;20454;-82
2021/06/27 01:51:07;;;;;;;13.43;5.87;;;15.60;99.90;;;16.59;100.00;98189.97;5016991;28;20502;-82
2021/06/27 01:53:39;;;;;;;6.10;5.20;;;15.60;99.90;;;16.31;100.00;98193.13;5026960;28;20496;-82
2021/06/27 01:56:10;;;;;;;8.27;5.23;;;15.30;99.90;;;16.40;100.00;98199.69;5028417;28;20450;-82
2021/06/27 01:58:41;;;;;;;8.60;4.60;;;15.40;99.90;;;16.54;100.00;98193.25;5027078;28;20521;-82
2021/06/27 02:01:15;;;;;;;6.87;4.93;;;15.50;99.90;;;16.52;100.00;98190.00;5019027;28;20536;-82
2021/06/27 02:03:43;;;;;;;7.70;5.70;;;15.50;99.90;;;16.40;100.00;98190.97;5024404;28;20496;-82
2021/06/27 02:06:13;;;;;;;8.27;5.57;;;15.40;99.90;;;16.32;100.00;98183.34;5021384;28;20453;-82
2021/06/27 02:08:43;;;;;;;7.90;5.40;;;15.30;99.90;;;16.41;100.00;98172.28;5020797;28;20516;-82
2021/06/27 02:11:15;;;;;;;6.80;5.30;;;15.40;99.90;;;16.31;100.00;98169.38;5022677;28;20456;-82
2021/06/27 02:13:44;;;;;;;11.10;5.37;;;15.30;99.90;;;16.32;100.00;98168.31;5026621;28;20494;-82
2021/06/27 02:16:13;;;;;;;15.23;5.40;;;15.30;99.90;;;16.26;100.00;98161.28;5024545;28;20551;-82
2021/06/27 02:18:44;;;;;;;9.13;5.07;;;15.20;99.90;;;16.16;100.00;98163.63;5024471;28;21072;-82
2021/06/27 02:21:20;;;;;;;7.03;5.23;;;15.20;99.90;;;16.33;100.00;98135.63;5026048;28;20559;-82
2021/06/27 02:23:49;;;;;;;14.10;5.90;;;15.40;99.90;;;16.41;100.00;98119.50;5022924;28;20991;-82
2021/06/27 02:26:19;;;;;;;11.23;5.20;;;15.40;99.90;;;16.39;100.00;98118.91;5026219;28;20848;-81
2021/06/27 02:28:49;;;;;;;17.67;5.57;;;15.40;99.90;;;16.45;100.00;98110.06;5022742;28;20953;-81
2021/06/27 02:31:19;;;;;;;17.20;5.57;;;15.40;99.90;;;16.31;100.00;98113.94;5025264;28;20983;-82
2021/06/27 02:33:48;;;;;;;9.00;5.40;;;15.30;99.90;;;16.15;100.00;98119.78;5020635;28;20475;-82
2021/06/27 02:36:18;;;;;;;10.27;5.50;;;15.20;99.90;;;16.17;100.00;98128.31;5025111;28;20651;-82
2021/06/27 02:38:46;;;;;;;5.73;5.13;;;15.20;99.90;;;16.16;100.00;98126.69;5021939;28;20519;-82
2021/06/27 02:41:15;;;;;;;8.40;5.07;;;15.10;99.90;;;16.30;100.00;98130.78;5022962;28;20489;-82
2021/06/27 02:43:44;;;;;;;5.50;4.80;;;15.30;99.90;;;16.40;100.00;98132.91;5021945;28;20552;-82
2021/06/27 02:46:13;;;;;;;7.10;5.30;;;15.40;99.90;;;16.37;100.00;98128.88;5025739;28;20461;-82
2021/06/27 02:48:42;;;;;;;5.10;4.60;;;15.40;99.90;;;16.31;100.00;98134.25;5022945;28;20495;-82
2021/06/27 02:51:11;;;;;;;8.23;5.87;;;15.30;99.90;;;16.01;100.00;98131.50;5022237;28;20466;-81
2021/06/27 02:53:41;;;;;;;5.83;5.13;;;15.00;99.90;;;16.12;100.00;98146.63;5026341;28;20535;-82
2021/06/27 02:56:09;;;;;;;8.90;5.43;;;15.10;99.90;;;16.03;100.00;98142.66;5022929;28;20515;-82
2021/06/27 02:58:40;;;;;;;9.80;5.97;;;15.00;99.90;;;16.03;100.00;98156.69;5027363;28;20458;-82
2021/06/27 03:01:10;;;;;;;9.37;5.13;;;15.00;99.90;;;16.12;100.00;98154.53;5022888;28;20475;-82
2021/06/27 03:03:40;;;;;;;6.90;5.30;;;15.10;99.90;;;16.12;100.00;98146.63;5023679;28;20490;-82
2021/06/27 03:06:09;;;;;;;7.63;5.33;;;15.10;99.90;;;16.19;100.00;98136.81;5022949;28;21030;-82
2021/06/27 03:08:40;;;;;;;9.80;6.17;;;15.20;99.90;;;16.26;100.00;98142.00;5023078;28;20802;-82
2021/06/27 03:11:09;;;;;;;13.30;5.90;;;15.30;99.90;;;16.10;100.00;98131.00;5026349;28;20544;-82
2021/06/27 03:13:41;;;;;;;8.03;5.33;;;15.10;99.90;;;15.93;100.00;98121.28;5020078;28;20446;-82
2021/06/27 03:16:11;;;;;;;8.27;4.90;;;14.90;99.90;;;16.04;100.00;98131.06;5024133;28;21055;-81
2021/06/27 03:18:40;;;;;;;18.40;5.30;;;15.00;99.90;;;16.08;100.00;98135.69;5025036;28;20479;-82
2021/06/27 03:21:09;;;;;;;7.93;5.30;;;15.10;99.90;;;16.17;100.00;98128.31;5027585;28;20907;-82
2021/06/27 03:23:38;;;;;;;7.13;5.30;;;15.20;99.90;;;16.22;100.00;98138.19;5019510;28;20567;-82
2021/06/27 03:26:07;;;;;;;11.83;5.53;;;15.30;99.90;;;16.15;100.00;98117.16;5024022;28;20965;-82
2021/06/27 03:28:38;;;;;;;15.47;5.57;;;15.20;99.90;;;15.90;100.00;98111.94;5023277;28;20453;-82
2021/06/27 03:31:07;;;;;;;8.70;5.00;;;14.90;99.90;;;16.00;100.00;98100.91;5025041;28;21060;-82
2021/06/27 03:33:35;;;;;;;9.40;6.53;;;15.00;99.90;;;15.99;100.00;98110.66;5015726;28;20536;-83
2021/06/27 03:36:06;;;;;;;7.67;5.73;;;15.00;99.90;;;16.02;100.00;98112.03;5017248;28;20556;-82
2021/06/27 03:38:40;;;;;;;11.90;5.83;;;15.10;99.90;;;16.13;100.00;98111.31;5021568;28;20866;-82
2021/06/27 03:41:11;;;;;;;9.83;5.93;;;15.20;99.90;;;16.18;100.00;98107.97;5022625;28;20551;-82
2021/06/27 03:43:39;;;;;;;7.23;5.40;;;15.20;99.90;;;16.19;100.00;98097.22;5029475;28;20531;-82
2021/06/27 03:46:08;;;;;;;7.87;4.93;;;15.30;99.90;;;16.04;100.00;98096.78;5029470;28;20872;-82
2021/06/27 03:48:37;;;;;;;9.07;5.50;;;15.00;99.90;;;16.00;100.00;98095.63;5026832;28;20515;-84
2021/06/27 03:51:06;;;;;;;8.03;5.27;;;15.00;99.90;;;15.96;100.00;98099.72;5026108;28;20895;-82
2021/06/27 03:53:35;;;;;;;7.80;5.20;;;14.90;99.90;;;15.87;100.00;98107.13;5024162;28;20504;-81
2021/06/27 03:56:03;;;;;;;9.73;5.60;;;14.90;99.90;;;15.84;100.00;98097.00;5022906;28;20458;-82
2021/06/27 03:58:33;;;;;;;11.63;5.80;;;14.80;99.90;;;15.84;100.00;98099.66;5024762;28;21014;-83
2021/06/27 04:01:02;;;;;;;9.73;5.30;;;14.80;99.90;;;15.83;100.00;98105.94;5021097;28;20466;-81
2021/06/27 04:03:31;;;;;;;8.27;5.97;;;14.70;99.90;;;15.92;100.00;98106.47;5025403;28;20995;-81
2021/06/27 04:05:59;;;;;;;6.70;5.20;;;14.80;99.90;;;15.81;100.00;98109.81;5020533;28;20508;-82
2021/06/27 04:08:28;;;;;;;11.83;5.63;;;14.80;99.90;;;15.83;100.00;98118.31;5024683;28;20469;-86
2021/06/27 04:10:58;;;;;;;8.67;5.40;;;14.80;99.90;;;15.94;100.00;98123.69;5022336;28;20837;-82
2021/06/27 04:13:29;;;;;;;13.03;6.27;;;15.00;99.90;;;16.00;100.00;98124.66;5024174;28;20951;-81
2021/06/27 04:16:00;;;;;;;7.70;4.97;;;15.00;99.90;;;15.95;100.00;98119.22;5028296;28;20466;-81
2021/06/27 04:18:29;;;;;;;8.10;5.13;;;14.90;99.90;;;16.03;100.00;98108.38;5026690;28;20443;-81
2021/06/27 04:20:59;;;;;;;9.77;5.60;;;15.00;99.90;;;16.06;100.00;98108.75;5025263;28;20999;-81
2021/06/27 04:23:32;;;;;;;7.10;5.30;;;15.10;99.90;;;16.05;100.00;98108.94;5026924;28;20445;-81
2021/06/27 04:26:01;;;;;;;8.00;5.53;;;15.00;99.90;;;15.99;100.00;98115.13;5027556;28;20496;-81
2021/06/27 04:28:29;;;;;;;6.97;5.83;;;15.00;99.90;;;16.01;100.00;98105.94;5027760;28;20493;-81
2021/06/27 04:30:59;;;;;;;9.80;5.27;;;15.00;99.90;;;15.97;100.00;98111.88;5024839;28;20450;-81
2021/06/27 04:33:28;;;;;;;8.47;5.70;;;14.90;99.90;;;15.99;100.00;98099.28;5028088;28;20450;-81
2021/06/27 04:35:56;;;;;;;11.60;5.47;;;15.00;99.90;;;15.92;100.00;98093.28;5023402;28;20698;-81
2021/06/27 04:38:25;;;;;;;10.70;4.97;;;14.90;99.90;;;15.98;100.00;98076.56;5020812;28;20520;-81
2021/06/27 04:40:56;;;;;;;6.37;5.00;;;14.90;99.90;;;16.01;100.00;98076.94;5022560;28;20544;-81
2021/06/27 04:43:25;;;;;;;14.27;5.27;;;15.00;99.90;;;15.98;100.00;98081.84;5023523;28;20461;-82
2021/06/27 04:45:54;;;;;;;8.10;5.20;;;15.00;99.90;;;15.93;100.00;98079.06;5023097;28;20501;-86
2021/06/27 04:48:24;;;;;;;8.33;6.63;;;14.90;99.90;;;15.98;100.00;98080.00;5020771;28;20529;-81
2021/06/27 04:50:53;;;;;;;11.63;6.33;;;15.00;99.90;;;16.07;100.00;98083.16;5026472;28;20541;-81
2021/06/27 04:53:23;;;;;;;8.03;5.33;;;15.10;99.90;;;15.99;100.00;98086.91;5027642;28;20508;-81
2021/06/27 04:55:52;;;;;;;15.20;5.97;;;15.00;99.90;;;16.15;100.00;98095.25;5026660;28;20435;-81
2021/06/27 04:58:21;;;;;;;11.90;6.30;;;15.10;99.90;;;16.26;100.00;98111.16;5028391;28;20454;-81
2021/06/27 05:00:49;;;;;;;9.80;5.80;;;15.30;99.90;;;16.36;100.00;98098.22;5026354;28;20458;-81
2021/06/27 05:03:21;;;;;;;8.80;5.50;;;15.40;99.90;;;16.45;100.00;98102.16;5027340;28;20433;-81
2021/06/27 05:05:51;;;;;;;9.67;5.07;;;15.60;99.90;;;16.52;100.00;98100.25;5027484;28;20529;-81
2021/06/27 05:08:19;;;;;;;8.00;6.10;;;15.60;99.90;;;16.57;100.00;98103.06;5025790;28;20446;-81
2021/06/27 05:10:47;;;;;;;7.07;5.60;;;15.60;99.90;;;16.68;100.00;98098.03;5021742;28;20454;-82
2021/06/27 05:13:16;;;;;;;15.07;5.60;;;15.70;99.90;;;16.77;100.00;98094.84;5019485;28;20465;-81
2021/06/27 05:15:45;;;;;;;11.63;5.40;;;15.80;99.90;;;16.86;100.00;98095.34;5020962;28;20485;-82
2021/06/27 05:18:13;;;;;;;13.00;5.90;;;16.00;99.90;;;16.86;100.00;98095.34;5023218;28;20461;-82
2021/06/27 05:20:41;;;;;;;7.77;4.97;;;15.90;99.90;;;16.94;100.00;98095.00;5024318;28;20458;-82
2021/06/27 05:23:13;;;;;;;9.63;5.67;;;16.00;99.90;;;16.99;100.00;98097.78;5022432;28;20458;-82
2021/06/27 05:25:42;;;;;;;6.93;5.77;;;16.10;99.90;;;17.07;100.00;98094.84;5017747;28;20481;-82
2021/06/27 05:28:12;;;;;;;14.60;5.57;;;16.10;99.90;;;17.13;100.00;98091.28;5019090;28;20866;-82
2021/06/27 05:30:40;;;;;;;7.90;6.00;;;16.20;99.90;;;17.19;100.00;98087.72;5023131;28;20461;-81
2021/06/27 05:33:10;;;;;;;10.77;5.97;;;16.20;99.90;;;17.24;100.00;98082.56;5029459;28;20465;-82
2021/06/27 05:35:39;;;;;;;11.70;8.30;;;16.30;99.90;;;17.27;100.00;98078.66;5022082;28;20450;-82
2021/06/27 05:38:08;;;;;;;17.70;9.30;;;16.40;99.90;;;17.29;100.00;98077.38;5022829;28;20462;-81
2021/06/27 05:40:39;;;;;;;8.93;5.07;;;16.40;99.90;;;17.36;100.00;98082.56;5019874;28;20528;-82
2021/06/27 05:43:07;;;;;;;6.60;5.43;;;16.40;99.90;;;17.36;100.00;98075.44;5019982;28;20454;-82
2021/06/27 05:45:36;;;;;;;8.13;5.03;;;16.50;99.90;;;17.43;100.00;98070.03;5013147;28;20499;-81
2021/06/27 05:48:06;;;;;;;8.90;5.67;;;16.50;99.90;;;17.46;100.00;98070.38;5023232;28;21070;-81
2021/06/27 05:50:34;;;;;;;7.00;5.90;;;16.50;99.90;;;17.48;100.00;98063.03;5023170;28;20512;-81
2021/06/27 05:53:04;;;;;;;8.00;5.20;;;16.60;99.90;;;17.47;100.00;98077.28;5025539;28;20529;-83
2021/06/27 05:55:33;;;;;;;22.03;10.67;;;16.60;99.90;;;17.53;100.00;98076.34;5022005;28;20964;-81
2021/06/27 05:58:04;;;;;;;11.33;6.50;;;16.70;99.90;;;17.60;100.00;98066.50;5023342;28;20462;-81
2021/06/27 06:00:32;;;;;;;6.67;5.63;;;16.80;99.90;;;17.69;100.00;98071.44;5023181;28;20463;-81
2021/06/27 06:03:01;;;;;;;12.13;6.40;;;16.90;99.90;;;17.74;100.00;98060.94;5021177;28;20461;-81
2021/06/27 06:05:31;;;;;;;8.50;5.47;;;16.90;99.90;;;17.82;100.00;98073.84;5023112;28;20590;-81
2021/06/27 06:07:59;;;;;;;7.23;5.17;;;17.00;99.90;;;17.89;100.00;98063.94;5023178;28;20944;-81
2021/06/27 06:10:27;;;;;;;16.57;6.80;;;17.10;99.90;;;17.96;100.00;98076.00;5020603;28;21023;-81
2021/06/27 06:12:56;;;;;;;13.80;7.10;;;17.10;99.90;;;18.03;100.00;98067.94;5017285;28;20978;-80
2021/06/27 06:15:27;;;;;;;9.53;7.00;;;17.20;99.90;;;18.09;100.00;98061.69;5011501;28;20481;-80
2021/06/27 06:17:55;;;;;;;15.10;6.67;;;17.30;99.90;;;18.13;100.00;98062.03;5022425;28;20520;-80
2021/06/27 06:20:24;;;;;;;7.10;6.20;;;17.30;99.90;;;18.15;100.00;98066.06;5021895;28;20496;-80
2021/06/27 06:22:52;;;;;;;12.50;7.00;;;17.40;99.90;;;18.21;100.00;98069.63;5021131;28;20862;-80
2021/06/27 06:25:20;;;;;;;8.80;6.90;;;17.40;99.90;;;18.25;100.00;98062.81;5018454;28;20485;-81
2021/06/27 06:27:49;;;;;;;11.07;6.53;;;17.40;99.90;;;18.30;100.00;98061.06;5025935;28;20496;-81
2021/06/27 06:30:18;;;;;;;8.93;6.97;;;17.50;99.90;;;18.31;100.00;98060.03;5031452;28;20466;-81
2021/06/27 06:32:48;;;;;;;11.40;6.00;;;17.50;99.90;;;18.35;100.00;98068.31;5029716;28;20466;-81
2021/06/27 06:35:17;;;;;;;9.07;6.47;;;17.50;99.90;;;18.41;100.00;98065.50;5029339;28;20449;-80
2021/06/27 06:37:46;;;;;;;8.33;6.90;;;17.60;99.90;;;18.47;100.00;98069.03;5030041;28;20446;-81
2021/06/27 06:40:15;;;;;;;12.33;7.63;;;17.60;99.90;;;18.51;100.00;98068.38;5029432;28;20481;-81
2021/06/27 06:42:43;;;;;;;9.97;7.93;;;17.70;99.90;;;18.55;100.00;98069.50;5027232;28;20462;-81
2021/06/27 06:45:12;;;;;;;8.13;6.53;;;17.80;99.90;;;18.62;100.00;98073.84;5022202;28;20488;-80
2021/06/27 06:47:41;;;;;;;14.23;6.50;;;17.90;99.90;;;18.67;100.00;98072.13;5027832;28;21001;-80
2021/06/27 06:50:11;;;;;;;13.80;7.70;;;17.90;99.90;;;18.74;100.00;98066.66;5026580;28;20528;-80
2021/06/27 06:52:40;;;;;;;7.70;6.70;;;18.00;99.90;;;18.80;100.00;98073.66;5024637;28;20469;-80
2021/06/27 06:55:09;;;;;;;9.53;6.37;;;18.00;99.90;;;18.86;100.00;98064.75;5024516;28;20458;-80
2021/06/27 06:57:38;;;;;;;9.50;7.40;;;18.10;99.90;;;18.88;100.00;98065.34;5021808;28;20508;-80
2021/06/27 07:00:10;;;;;;;8.83;6.60;;;18.20;99.90;;;18.92;100.00;98069.09;5026055;28;20442;-81
2021/06/27 07:02:39;;;;;;;10.80;6.63;;;18.20;99.90;;;18.98;100.00;98070.78;5026778;28;20446;-81
2021/06/27 07:05:10;;;;;;;10.50;7.63;;;18.20;99.90;;;19.03;100.00;98070.88;5021701;28;20477;-81
2021/06/27 07:07:41;;;;;;;9.53;6.60;;;18.30;99.90;;;19.08;100.00;98073.63;5029187;28;20453;-80
2021/06/27 07:10:11;;;;;;;13.03;6.80;;;18.40;99.90;;;19.15;100.00;98074.25;5025745;28;20459;-80
2021/06/27 07:12:40;;;;;;;8.63;6.10;;;18.40;99.90;;;19.20;100.00;98061.06;5023655;28;20466;-81
2021/06/27 07:15:10;;;;;;;66.17;44.10;;;18.50;99.90;;;19.28;100.00;98062.50;5021018;28;20532;-82
2021/06/27 07:17:39;;;;;;;21.20;13.10;;;18.50;99.90;;;19.34;100.00;98061.53;5022070;28;20462;-80
2021/06/27 07:20:12;;;;;;;10.37;7.77;;;18.60;99.90;;;19.40;100.00;98068.53;5024408;28;20469;-81
2021/06/27 07:22:41;;;;;;;9.20;6.30;;;18.70;99.90;;;19.45;100.00;98058.03;5016190;28;20972;-80
2021/06/27 07:25:12;;;;;;;11.90;6.80;;;18.70;99.90;;;19.52;100.00;98063.97;5021620;28;20462;-80
2021/06/27 07:27:40;;;;;;;8.00;6.90;;;18.90;99.90;;;19.56;100.00;98065.91;5017261;28;20499;-80
2021/06/27 07:30:11;;;;;;;8.57;7.00;;;18.90;99.90;;;19.63;100.00;98060.41;5024118;28;20462;-80
2021/06/27 07:32:40;;;;;;;7.30;6.23;;;19.00;99.90;;;19.68;100.00;98065.00;5024533;28;20484;-81
2021/06/27 07:35:11;;;;;;;9.07;6.67;;;19.10;99.90;;;19.76;100.00;98056.59;5023352;28;20519;-81
2021/06/27 07:37:44;;;;;;;8.17;6.63;;;19.10;99.90;;;19.81;100.00;98060.13;5022052;28;20569;-81
2021/06/27 07:40:15;;;;;;;22.73;16.17;;;19.20;99.90;;;19.86;100.00;98059.38;5025398;28;20486;-81
2021/06/27 07:42:44;;;;;;;17.13;8.13;;;19.30;99.90;;;19.91;100.00;98043.53;5023768;28;20462;-81
2021/06/27 07:45:13;;;;;;;7.63;6.30;;;19.30;99.90;;;20.00;100.00;98053.47;5023725;28;20960;-80
2021/06/27 07:47:42;;;;;;;9.23;7.10;;;19.40;99.90;;;20.07;100.00;98055.94;5021296;28;20505;-81
2021/06/27 07:50:13;;;;;;;9.70;6.90;;;19.40;99.90;;;20.12;100.00;98053.34;5020068;28;20454;-81
2021/06/27 07:52:42;;;;;;;9.17;7.10;;;19.50;99.90;;;20.18;100.00;98046.25;5022144;28;21014;-80
2021/06/27 07:55:11;;;;;;;8.60;6.33;;;19.50;99.90;;;20.22;100.00;98057.97;5022539;28;20444;-80
2021/06/27 07:57:40;;;;;;;7.13;6.37;;;19.60;99.90;;;20.28;100.00;98057.81;5027658;28;20507;-80
2021/06/27 08:00:12;;;;;;;8.10;6.50;;;19.70;99.90;;;20.36;100.00;98054.72;5028280;28;20446;-80
2021/06/27 08:02:40;;;;;;;7.60;5.93;;;19.80;99.90;;;20.44;100.00;98045.50;5027022;28;20495;-79
2021/06/27 08:05:11;;;;;;;8.10;6.67;;;19.90;99.90;;;20.52;100.00;98055.66;5024230;28;20876;-80
2021/06/27 08:07:40;;;;;;;7.03;6.30;;;19.90;99.90;;;20.61;100.00;98050.72;5022390;28;20501;-80
2021/06/27 08:10:11;;;;;;;32.13;21.70;;;20.00;99.90;;;20.65;100.00;98047.31;5020192;28;21063;-81
2021/06/27 08:12:41;;;;;;;14.13;9.03;;;20.10;99.90;;;20.71;100.00;98048.16;5021763;28;20458;-80
2021/06/27 08:15:18;;;;;;;10.10;6.33;;;20.10;99.90;;;20.79;100.00;98042.41;5021166;28;20478;-80
2021/06/27 08:17:48;;;;;;;10.07;5.90;;;20.20;99.90;;;20.86;100.00;98043.00;5026195;28;20951;-80
2021/06/27 08:20:19;;;;;;;7.47;5.67;;;20.30;99.90;;;20.93;100.00;98046.25;5026382;28;20502;-80
2021/06/27 08:22:48;;;;;;;12.60;6.43;;;20.30;99.90;;;21.07;100.00;98044.75;5024418;28;20473;-80
2021/06/27 08:25:18;;;;;;;8.50;5.50;;;20.40;99.90;;;21.14;100.00;98039.25;5022464;28;20461;-80
2021/06/27 08:27:47;;;;;;;7.77;5.30;;;20.50;99.90;;;21.20;100.00;98030.25;5020747;28;20586;-80
2021/06/27 08:30:18;;;;;;;6.50;5.40;;;20.60;99.90;;;21.27;100.00;98028.19;5021212;28;20454;-80
2021/06/27 08:32:48;;;;;;;6.47;5.70;;;20.70;99.90;;;21.35;100.00;98025.03;5023244;28;20470;-81
2021/06/27 08:35:20;;;;;;;8.13;5.90;;;20.80;99.90;;;21.41;100.00;98030.16;5019547;28;20463;-80
2021/06/27 08:37:51;;;;;;;61.97;39.93;;;20.80;99.90;;;21.51;100.00;98029.41;5025713;28;20795;-81
2021/06/27 08:40:21;;;;;;;12.73;6.10;;;20.90;99.90;;;21.62;100.00;98030.25;5020317;28;21000;-80
2021/06/27 08:42:50;;;;;;;7.03;5.10;;;21.00;99.90;;;21.64;100.00;98020.13;5023330;28;20528;-80
2021/06/27 08:45:23;;;;;;;6.30;5.70;;;21.10;99.90;;;21.72;100.00;98017.81;5024077;28;20544;-80
2021/06/27 08:47:55;;;;;;;8.73;5.63;;;21.10;99.90;;;21.79;100.00;98009.56;5022997;28;20848;-81
2021/06/27 08:50:27;;;;;;;10.00;6.00;;;21.20;99.90;;;21.86;100.00;98015.47;5021813;28;20498;-80
2021/06/27 08:52:56;;;;;;;9.40;5.47;;;21.30;99.90;;;21.90;100.00;98011.25;5017615;28;20956;-80
2021/06/27 08:55:25;;;;;;;5.70;5.07;;;21.30;99.90;;;21.94;100.00;98007.78;5022407;28;20516;-80
2021/06/27 08:57:54;;;;;;;42.43;30.37;;;21.40;99.90;;;22.01;100.00;98010.22;5021754;28;20458;-81
2021/06/27 09:00:23;;;;;;;8.70;5.90;;;21.40;99.90;;;22.05;100.00;98019.28;5023854;28;20473;-80
2021/06/27 09:02:51;;;;;;;8.67;6.30;;;21.50;99.90;;;22.13;100.00;98023.31;5023792;28;20466;-81
2021/06/27 09:05:22;;;;;;;6.70;5.43;;;21.60;99.90;;;22.22;100.00;98024.41;5021475;28;20473;-80
2021/06/27 09:07:53;;;;;;;6.20;5.60;;;21.60;99.90;;;22.29;100.00;98019.63;5024740;28;20498;-80
2021/06/27 09:10:26;;;;;;;16.93;6.63;;;21.70;99.90;;;22.39;100.00;98027.63;5025818;28;20499;-80
2021/06/27 09:12:57;;;;;;;10.70;5.27;;;21.80;99.90;;;22.43;100.00;98021.53;5022438;28;20478;-80
2021/06/27 09:15:47;;;;;;;6.80;5.87;;;21.90;99.90;;;22.52;100.00;98019.16;5019452;28;20517;-80
2021/06/27 09:18:30;;;;;;;9.27;6.60;;;21.90;99.90;;;22.53;100.00;98024.22;5022813;28;20529;-80
2021/06/27 09:20:59;;;;;;;9.87;7.50;;;22.00;99.90;;;22.54;100.00;98020.50;5019480;28;20469;-80
2021/06/27 09:23:41;;;;;;;9.27;6.37;;;22.00;99.90;;;22.59;100.00;98022.38;5018013;28;20482;-80
2021/06/27 09:26:13;;;;;;;6.93;6.23;;;22.00;99.90;;;22.58;100.00;98016.22;5022628;28;20461;-80
2021/06/27 09:28:46;;;;;;;12.47;6.27;;;22.10;99.90;;;22.62;100.00;98021.84;5024240;28;20490;-80
2021/06/27 09:31:34;;;;;;;6.60;5.87;;;22.10;99.90;;;22.69;100.00;98018.94;5027374;28;20458;-80
2021/06/27 09:34:06;;;;;;;9.70;5.40;;;22.20;99.90;;;22.74;100.00;98018.94;5022715;28;20447;-80
2021/06/27 09:36:39;;;;;;;7.40;5.97;;;22.20;99.90;;;22.82;100.00;98013.88;5027408;28;20442;-80
2021/06/27 09:39:12;;;;;;;8.00;5.90;;;22.20;99.90;;;22.86;100.00;98014.16;5024137;28;20858;-81
2021/06/27 09:41:50;;;;;;;8.20;6.00;;;22.20;99.90;;;22.89;100.00;98016.28;5026666;28;20454;-80
2021/06/27 09:44:22;;;;;;;8.50;6.80;;;22.30;99.90;;;22.94;100.00;98016.28;5024494;28;20442;-80
2021/06/27 09:46:53;;;;;;;6.83;5.77;;;22.40;99.90;;;22.98;100.00;98009.34;5025672;28;20574;-81
2021/06/27 09:49:32;;;;;;;7.03;6.20;;;22.30;99.90;;;23.00;100.00;98007.22;5023901;28;20454;-80
2021/06/27 09:52:06;;;;;;;6.50;5.90;;;22.40;99.90;;;23.07;100.00;98015.75;5026671;28;20442;-79
2021/06/27 09:54:38;;;;;;;9.40;5.43;;;22.50;99.90;;;23.17;100.00;98017.59;5022307;28;21033;-80
2021/06/27 09:57:08;;;;;;;7.87;6.23;;;22.60;99.90;;;23.25;100.00;98017.88;5025744;28;20446;-80
2021/06/27 09:59:40;;;;;;;22.93;16.10;;;22.70;99.90;;;23.30;100.00;98015.19;5023222;28;20473;-80
2021/06/27 10:02:09;;;;;;;6.40;5.63;;;22.70;99.90;;;23.41;100.00;98019.47;5026879;28;20450;-80
2021/06/27 10:04:40;;;;;;;5.33;4.83;;;22.80;99.90;;;23.48;100.00;98028.00;5024194;28;20458;-80
2021/06/27 10:07:09;;;;;;;8.07;6.70;;;22.90;99.90;;;23.52;100.00;98022.91;5029169;28;20489;-80
2021/06/27 10:09:42;;;;;;;9.73;6.77;;;23.00;99.90;;;23.58;100.00;98018.34;5031388;28;20448;-80
2021/06/27 10:12:12;;;;;;;7.77;6.43;;;23.00;99.90;;;23.65;100.00;98027.69;5028595;28;20496;-80
2021/06/27 10:14:58;;;;;;;6.03;5.43;;;23.10;99.90;;;23.70;100.00;98021.53;5024717;28;20462;-80
2021/06/27 10:17:29;;;;;;;7.37;6.57;;;23.10;99.90;;;23.75;100.00;98016.16;5026282;28;20449;-80
2021/06/27 10:19:58;;;;;;;8.93;6.40;;;23.20;99.90;;;23.77;100.00;98008.69;5031040;28;20492;-80
2021/06/27 10:22:27;;;;;;;7.53;6.03;;;23.20;99.90;;;23.83;100.00;98024.44;5031140;28;20932;-80